Time;durP1;ratioP1;P1;durP2;ratioP2;P2;SDS_P1;SDS_P2;PMS_P1;PMS_P2;Temp;Humidity;BMP_temperature;BMP_pressure;BME280_temperature;BME280_humidity;BME280_pressure;Samples;Min_cycle;Max_cycle;Signal;HPM_P1;HPM_P2
2023/06/08 00:02:17;;;;;;;3.20;3.00;;;;;;;;;;5054609;28;20545;-88
2023/06/08 00:04:44;;;;;;;3.50;3.20;;;;;;;;;;5054213;28;20405;-85
2023/06/08 00:07:14;;;;;;;4.05;3.47;;;;;;;;;;5053341;28;20401;-86
2023/06/08 00:09:40;;;;;;;3.65;3.35;;;;;;;;;;5053870;28;20373;-86
2023/06/08 00:12:06;;;;;;;3.75;3.42;;;;;;;;;;5053669;28;20405;-86
2023/06/08 00:14:34;;;;;;;3.83;3.53;;;;;;;;;;5053788;28;20448;-85
2023/06/08 00:17:02;;;;;;;3.30;3.10;;;;;;;;;;5053669;28;20373;-87
2023/06/08 00:19:29;;;;;;;3.40;3.20;;;;;;;;;;5053662;28;20842;-87
2023/06/08 00:21:56;;;;;;;3.65;3.40;;;;;;;;;;5053663;28;20393;-87
2023/06/08 00:24:22;;;;;;;3.80;3.50;;;;;;;;;;5053627;28;20530;-86
2023/06/08 00:26:48;;;;;;;3.90;3.60;;;;;;;;;;5053029;28;20381;-86
2023/06/08 00:29:14;;;;;;;3.40;3.10;;;;;;;;;;5053669;28;20480;-86
2023/06/08 00:31:40;;;;;;;3.50;3.20;;;;;;;;;;5053464;28;20464;-87
2023/06/08 00:34:06;;;;;;;3.53;3.25;;;;;;;;;;5053559;28;20481;-87
2023/06/08 00:36:32;;;;;;;3.50;3.20;;;;;;;;;;5052924;28;20388;-86
2023/06/08 00:38:58;;;;;;;3.58;3.28;;;;;;;;;;5053506;28;20377;-86
2023/06/08 00:41:25;;;;;;;3.90;3.60;;;;;;;;;;5052776;28;20420;-86
2023/06/08 00:43:51;;;;;;;3.60;3.30;;;;;;;;;;5053150;28;20385;-85
2023/06/08 00:46:17;;;;;;;3.75;3.30;;;;;;;;;;5052930;28;20908;-87
2023/06/08 00:48:43;;;;;;;3.40;3.20;;;;;;;;;;5052869;28;20479;-86
2023/06/08 00:51:11;;;;;;;3.85;3.55;;;;;;;;;;5053182;28;20385;-86
2023/06/08 00:53:37;;;;;;;3.72;3.40;;;;;;;;;;5053199;28;20397;-86
2023/06/08 00:56:03;;;;;;;3.60;3.30;;;;;;;;;;5052766;28;20377;-85
2023/06/08 00:58:30;;;;;;;4.03;3.67;;;;;;;;;;5052548;28;20430;-88
2023/06/08 01:00:59;;;;;;;3.70;3.40;;;;;;;;;;5052667;28;20390;-86
2023/06/08 01:03:33;;;;;;;3.40;3.17;;;;;;;;;;5052868;28;20385;-88
2023/06/08 01:06:00;;;;;;;3.20;3.00;;;;;;;;;;5051781;28;20401;-87
2023/06/08 01:08:39;;;;;;;5.30;3.70;;;;;;;;;;5052512;28;20778;-88
2023/06/08 01:11:08;;;;;;;3.70;3.40;;;;;;;;;;5052542;28;20393;-86
2023/06/08 01:13:40;;;;;;;3.75;3.45;;;;;;;;;;5052697;28;20373;-87
2023/06/08 01:16:08;;;;;;;3.65;3.35;;;;;;;;;;5052346;28;20815;-86
2023/06/08 01:18:40;;;;;;;3.83;3.42;;;;;;;;;;5052792;28;20859;-87
2023/06/08 01:21:22;;;;;;;3.50;3.17;;;;;;;;;;5052561;28;20374;-87
2023/06/08 01:24:00;;;;;;;3.63;3.33;;;;;;;;;;5052790;28;20434;-87
2023/06/08 01:26:28;;;;;;;3.13;2.83;;;;;;;;;;5052142;28;20445;-87
2023/06/08 01:28:55;;;;;;;3.65;3.35;;;;;;;;;;5052631;28;20443;-88
2023/06/08 01:31:21;;;;;;;3.75;3.42;;;;;;;;;;5052199;28;20464;-88
2023/06/08 01:33:48;;;;;;;3.40;3.20;;;;;;;;;;5052616;28;20743;-87
2023/06/08 01:36:25;;;;;;;3.28;3.08;;;;;;;;;;5052105;28;20417;-88
2023/06/08 01:39:12;;;;;;;3.80;3.33;;;;;;;;;;5052259;28;20385;-88
2023/06/08 01:41:39;;;;;;;3.40;3.10;;;;;;;;;;5052062;28;20381;-88
2023/06/08 01:44:07;;;;;;;3.53;3.22;;;;;;;;;;5052179;28;20430;-88
2023/06/08 01:46:33;;;;;;;3.70;3.20;;;;;;;;;;5051529;28;20492;-86
2023/06/08 01:49:00;;;;;;;3.60;3.28;;;;;;;;;;5051983;28;20396;-87
2023/06/08 01:51:26;;;;;;;3.53;3.22;;;;;;;;;;5051817;28;20443;-87
2023/06/08 01:54:08;;;;;;;3.70;3.40;;;;;;;;;;5046540;28;20391;-86
2023/06/08 01:56:35;;;;;;;3.50;3.20;;;;;;;;;;5049147;28;20550;-86
2023/06/08 01:59:02;;;;;;;3.40;3.10;;;;;;;;;;5044487;28;20398;-88
2023/06/08 02:01:28;;;;;;;3.43;3.23;;;;;;;;;;5047880;28;20461;-88
2023/06/08 02:03:54;;;;;;;3.40;3.15;;;;;;;;;;5043790;28;20383;-87
2023/06/08 02:06:20;;;;;;;3.35;3.08;;;;;;;;;;5051372;28;20401;-88
2023/06/08 02:08:46;;;;;;;3.90;3.30;;;;;;;;;;5037257;28;20383;-87
2023/06/08 02:11:12;;;;;;;3.90;3.40;;;;;;;;;;5024547;28;20539;-87
2023/06/08 02:13:41;;;;;;;3.47;3.20;;;;;;;;;;5049453;28;20412;-86
2023/06/08 02:16:08;;;;;;;3.40;3.20;;;;;;;;;;5048940;28;20382;-87
2023/06/08 02:18:35;;;;;;;3.80;3.50;;;;;;;;;;5032190;28;20425;-89
2023/06/08 02:21:04;;;;;;;3.65;3.35;;;;;;;;;;5045533;28;21001;-86
2023/06/08 02:23:30;;;;;;;3.30;3.10;;;;;;;;;;5043598;28;20394;-88
2023/06/08 02:25:56;;;;;;;5.10;3.50;;;;;;;;;;5031614;28;20415;-86
2023/06/08 02:28:22;;;;;;;3.47;3.28;;;;;;;;;;5048977;28;20854;-88
2023/06/08 02:30:48;;;;;;;3.40;3.20;;;;;;;;;;5049655;28;20424;-87
2023/06/08 02:33:14;;;;;;;3.50;3.25;;;;;;;;;;5048118;28;20385;-87
2023/06/08 02:35:41;;;;;;;3.60;3.40;;;;;;;;;;5046716;28;20850;-86
2023/06/08 02:38:07;;;;;;;3.65;3.40;;;;;;;;;;5043202;28;20391;-86
2023/06/08 02:40:33;;;;;;;3.72;3.45;;;;;;;;;;5035550;28;20440;-86
2023/06/08 02:43:00;;;;;;;3.80;3.45;;;;;;;;;;5037474;28;20480;-86
2023/06/08 02:45:26;;;;;;;3.83;3.53;;;;;;;;;;5048875;28;20521;-87
2023/06/08 02:47:52;;;;;;;3.53;3.22;;;;;;;;;;5049627;28;20384;-87
2023/06/08 02:50:18;;;;;;;3.72;3.42;;;;;;;;;;5035504;28;20390;-86
2023/06/08 02:52:45;;;;;;;3.70;3.40;;;;;;;;;;5035172;28;20444;-86
2023/06/08 02:55:11;;;;;;;3.40;3.20;;;;;;;;;;5032086;28;20688;-86
2023/06/08 02:57:38;;;;;;;3.30;3.10;;;;;;;;;;5046890;28;20869;-88
2023/06/08 03:00:08;;;;;;;3.90;3.60;;;;;;;;;;5032467;28;20379;-86
2023/06/08 03:02:36;;;;;;;3.97;3.67;;;;;;;;;;5034306;28;20382;-86
2023/06/08 03:05:03;;;;;;;4.10;3.80;;;;;;;;;;5049453;28;20533;-87
2023/06/08 03:07:30;;;;;;;4.03;3.72;;;;;;;;;;5035382;28;20410;-86
2023/06/08 03:09:56;;;;;;;4.30;3.80;;;;;;;;;;5050836;28;20413;-87
2023/06/08 03:12:22;;;;;;;3.65;3.35;;;;;;;;;;5050010;28;20401;-87
2023/06/08 03:14:48;;;;;;;4.03;3.72;;;;;;;;;;5050774;28;20443;-86
2023/06/08 03:17:17;;;;;;;3.95;3.75;;;;;;;;;;5044934;28;20396;-87
2023/06/08 03:19:43;;;;;;;4.10;3.80;;;;;;;;;;5044396;28;20801;-86
2023/06/08 03:22:09;;;;;;;3.85;3.55;;;;;;;;;;5044826;28;20390;-86
2023/06/08 03:24:36;;;;;;;4.40;3.53;;;;;;;;;;5042977;28;20382;-87
2023/06/08 03:27:02;;;;;;;3.97;3.67;;;;;;;;;;5044772;28;20431;-87
2023/06/08 03:29:29;;;;;;;3.83;3.53;;;;;;;;;;5050933;28;20384;-87
2023/06/08 03:31:56;;;;;;;4.00;3.67;;;;;;;;;;5050159;28;20414;-87
2023/06/08 03:34:25;;;;;;;4.32;3.92;;;;;;;;;;5044772;28;20402;-87
2023/06/08 03:36:52;;;;;;;3.97;3.67;;;;;;;;;;5035985;28;20381;-88
2023/06/08 03:39:18;;;;;;;3.85;3.55;;;;;;;;;;5041908;28;20801;-87
2023/06/08 03:41:44;;;;;;;3.80;3.50;;;;;;;;;;5042732;28;20375;-85
2023/06/08 03:44:10;;;;;;;3.65;3.38;;;;;;;;;;5038121;28;20401;-87
2023/06/08 03:46:36;;;;;;;3.80;3.50;;;;;;;;;;5021559;28;20459;-86
2023/06/08 03:49:02;;;;;;;4.05;3.75;;;;;;;;;;5041470;28;20409;-86
2023/06/08 03:51:28;;;;;;;4.25;3.85;;;;;;;;;;5043474;28;20381;-87
2023/06/08 03:53:54;;;;;;;4.20;3.80;;;;;;;;;;5047374;28;20734;-86
2023/06/08 03:56:20;;;;;;;3.97;3.67;;;;;;;;;;5044064;28;20381;-85
2023/06/08 03:58:46;;;;;;;3.55;3.30;;;;;;;;;;5039003;28;20943;-85
2023/06/08 04:01:13;;;;;;;4.13;3.78;;;;;;;;;;5040988;28;20873;-86
2023/06/08 04:03:39;;;;;;;5.05;3.97;;;;;;;;;;5042242;28;20409;-86
2023/06/08 04:06:08;;;;;;;3.97;3.67;;;;;;;;;;5037669;28;20421;-86
2023/06/08 04:08:34;;;;;;;3.85;3.55;;;;;;;;;;5044485;28;20382;-87
2023/06/08 04:11:00;;;;;;;3.95;3.55;;;;;;;;;;5053346;28;20409;-86
2023/06/08 04:13:26;;;;;;;3.70;3.40;;;;;;;;;;5053875;28;20660;-85
2023/06/08 04:15:52;;;;;;;4.07;3.67;;;;;;;;;;5053275;28;20388;-86
2023/06/08 04:18:18;;;;;;;3.38;3.13;;;;;;;;;;5053766;28;20447;-86
2023/06/08 04:20:45;;;;;;;3.70;3.50;;;;;;;;;;5049495;28;20383;-86
2023/06/08 04:23:11;;;;;;;4.00;3.70;;;;;;;;;;5052160;28;20497;-88
2023/06/08 04:25:37;;;;;;;3.70;3.50;;;;;;;;;;5053307;28;20894;-87
2023/06/08 04:28:03;;;;;;;3.80;3.50;;;;;;;;;;5054486;28;20388;-85
2023/06/08 04:30:29;;;;;;;3.90;3.50;;;;;;;;;;5053370;28;20404;-87
2023/06/08 04:32:57;;;;;;;4.00;3.70;;;;;;;;;;5053243;28;20938;-90
2023/06/08 04:35:23;;;;;;;3.80;3.50;;;;;;;;;;5053223;28;20388;-86
2023/06/08 04:37:49;;;;;;;4.18;3.83;;;;;;;;;;5052323;28;20389;-87
2023/06/08 04:40:16;;;;;;;4.05;3.60;;;;;;;;;;5043769;28;21007;-87
2023/06/08 04:42:44;;;;;;;4.07;3.70;;;;;;;;;;5046433;28;20462;-87
2023/06/08 04:45:11;;;;;;;3.95;3.65;;;;;;;;;;5036257;28;20876;-86
2023/06/08 04:47:37;;;;;;;3.80;3.50;;;;;;;;;;5039359;28;20463;-87
2023/06/08 04:50:09;;;;;;;4.00;3.70;;;;;;;;;;5043265;28;20370;-86
2023/06/08 04:52:40;;;;;;;4.13;3.83;;;;;;;;;;5051544;28;20438;-86
2023/06/08 04:55:07;;;;;;;4.00;3.70;;;;;;;;;;5051841;28;20378;-87
2023/06/08 04:57:33;;;;;;;3.60;3.40;;;;;;;;;;5049044;28;20747;-86
2023/06/08 04:59:59;;;;;;;3.72;3.53;;;;;;;;;;5050686;28;20385;-85
2023/06/08 05:02:25;;;;;;;4.03;3.73;;;;;;;;;;5044771;28;20410;-85
2023/06/08 05:04:51;;;;;;;4.00;3.60;;;;;;;;;;5047815;28;20794;-85
2023/06/08 05:07:17;;;;;;;3.80;3.58;;;;;;;;;;5039961;28;20379;-86
2023/06/08 05:09:43;;;;;;;3.97;3.67;;;;;;;;;;5046370;28;20443;-86
2023/06/08 05:12:10;;;;;;;3.77;3.57;;;;;;;;;;5052430;28;20469;-87
2023/06/08 05:14:36;;;;;;;3.80;3.50;;;;;;;;;;5052350;28;20386;-87
2023/06/08 05:17:02;;;;;;;3.70;3.40;;;;;;;;;;5039945;28;20372;-87
2023/06/08 05:19:29;;;;;;;3.58;3.28;;;;;;;;;;5044300;28;20902;-86
2023/06/08 05:21:54;;;;;;;3.92;3.63;;;;;;;;;;5051522;28;20373;-86
2023/06/08 05:24:21;;;;;;;3.60;3.37;;;;;;;;;;5052145;28;20396;-86
2023/06/08 05:26:47;;;;;;;3.63;3.33;;;;;;;;;;5049397;28;20421;-86
2023/06/08 05:29:13;;;;;;;3.10;2.90;;;;;;;;;;5052416;28;20381;-86
2023/06/08 05:31:39;;;;;;;3.70;3.50;;;;;;;;;;5032277;28;20397;-86
2023/06/08 05:34:05;;;;;;;3.60;3.30;;;;;;;;;;5039205;28;20441;-87
2023/06/08 05:36:31;;;;;;;3.90;3.60;;;;;;;;;;5044631;28;20385;-86
2023/06/08 05:39:02;;;;;;;3.75;3.50;;;;;;;;;;5041428;28;20389;-86
2023/06/08 05:41:28;;;;;;;3.97;3.67;;;;;;;;;;5035138;28;20764;-87
2023/06/08 05:43:54;;;;;;;3.90;3.70;;;;;;;;;;5049444;28;20392;-87
2023/06/08 05:46:20;;;;;;;3.50;3.20;;;;;;;;;;5045760;28;20407;-87
2023/06/08 05:48:46;;;;;;;3.50;3.20;;;;;;;;;;5036604;28;20819;-86
2023/06/08 05:51:12;;;;;;;3.85;3.55;;;;;;;;;;5033589;28;20379;-86
2023/06/08 05:53:39;;;;;;;3.17;2.97;;;;;;;;;;5045002;28;20439;-86
2023/06/08 05:56:05;;;;;;;3.70;3.40;;;;;;;;;;5051130;28;20381;-85
2023/06/08 05:58:31;;;;;;;3.83;3.50;;;;;;;;;;5050671;28;20692;-87
2023/06/08 06:00:59;;;;;;;3.95;3.60;;;;;;;;;;5048516;28;20392;-87
2023/06/08 06:03:26;;;;;;;3.97;3.67;;;;;;;;;;5035370;28;20473;-86
2023/06/08 06:05:52;;;;;;;3.83;3.53;;;;;;;;;;5017794;28;20399;-86
2023/06/08 06:08:18;;;;;;;3.60;3.30;;;;;;;;;;5035361;28;20387;-85
2023/06/08 06:10:44;;;;;;;3.60;3.40;;;;;;;;;;5043926;28;20731;-88
2023/06/08 06:13:10;;;;;;;4.63;3.50;;;;;;;;;;5048366;28;20385;-86
2023/06/08 06:15:36;;;;;;;3.88;3.50;;;;;;;;;;5051424;28;20377;-87
2023/06/08 06:18:02;;;;;;;3.63;3.40;;;;;;;;;;5051628;28;20381;-87
2023/06/08 06:20:29;;;;;;;3.95;3.53;;;;;;;;;;5051420;28;20732;-88
2023/06/08 06:22:55;;;;;;;3.70;3.40;;;;;;;;;;5051263;28;20595;-87
2023/06/08 06:25:21;;;;;;;4.28;3.38;;;;;;;;;;5051496;28;20499;-88
2023/06/08 06:27:48;;;;;;;3.80;3.50;;;;;;;;;;5051767;28;20727;-87
2023/06/08 06:30:14;;;;;;;3.60;3.40;;;;;;;;;;5048896;28;20381;-89
2023/06/08 06:32:40;;;;;;;3.92;3.55;;;;;;;;;;5040254;28;20447;-89
2023/06/08 06:35:07;;;;;;;3.83;3.53;;;;;;;;;;5048123;28;20387;-88
2023/06/08 06:37:34;;;;;;;3.90;3.60;;;;;;;;;;5050692;28;20489;-89
2023/06/08 06:40:04;;;;;;;3.55;3.33;;;;;;;;;;5044171;28;20375;-87
2023/06/08 06:42:30;;;;;;;3.70;3.50;;;;;;;;;;5047078;28;20396;-86
2023/06/08 06:44:58;;;;;;;3.97;3.67;;;;;;;;;;5050724;28;20467;-88
2023/06/08 06:47:24;;;;;;;3.78;3.47;;;;;;;;;;5050774;28;20464;-87
2023/06/08 06:49:50;;;;;;;3.60;3.30;;;;;;;;;;5051222;28;20476;-87
2023/06/08 06:52:16;;;;;;;4.10;3.80;;;;;;;;;;5050968;28;20407;-85
2023/06/08 06:54:42;;;;;;;4.40;4.10;;;;;;;;;;5050621;28;20427;-86
2023/06/08 06:57:08;;;;;;;4.60;4.20;;;;;;;;;;5036420;28;20383;-86
2023/06/08 06:59:34;;;;;;;4.40;4.10;;;;;;;;;;5051182;28;20381;-86
2023/06/08 07:02:00;;;;;;;4.47;4.18;;;;;;;;;;5032990;28;20475;-87
2023/06/08 07:04:26;;;;;;;4.13;3.83;;;;;;;;;;5051715;28;20396;-88
2023/06/08 07:06:53;;;;;;;4.65;4.28;;;;;;;;;;5054841;28;20499;-88
2023/06/08 07:09:23;;;;;;;5.80;5.20;;;;;;;;;;5055210;28;20373;-87
2023/06/08 07:11:49;;;;;;;5.78;5.18;;;;;;;;;;5054996;28;20401;-87
2023/06/08 07:14:16;;;;;;;8.77;6.70;;;;;;;;;;5055940;28;20731;-90
2023/06/08 07:16:42;;;;;;;6.85;6.15;;;;;;;;;;5042235;28;20480;-88
2023/06/08 07:19:08;;;;;;;6.43;5.82;;;;;;;;;;5055456;28;20909;-88
2023/06/08 07:21:38;;;;;;;7.00;6.30;;;;;;;;;;5055444;28;20385;-87
2023/06/08 07:24:04;;;;;;;7.45;6.75;;;;;;;;;;5054580;28;20388;-87
2023/06/08 07:26:30;;;;;;;7.10;6.47;;;;;;;;;;5045698;28;20412;-89
2023/06/08 07:28:57;;;;;;;7.68;6.97;;;;;;;;;;5055196;28;20393;-88
2023/06/08 07:31:23;;;;;;;7.82;7.13;;;;;;;;;;5052217;28;20386;-86
2023/06/08 07:33:50;;;;;;;8.18;7.30;;;;;;;;;;5053277;28;20374;-91
2023/06/08 07:36:16;;;;;;;7.63;6.88;;;;;;;;;;5048981;28;20392;-88
2023/06/08 07:38:42;;;;;;;9.48;7.25;;;;;;;;;;5045531;28;20739;-88
2023/06/08 07:41:08;;;;;;;8.50;6.88;;;;;;;;;;5054687;28;20381;-88
2023/06/08 07:43:35;;;;;;;6.70;6.10;;;;;;;;;;5054605;28;20460;-89
2023/06/08 07:46:01;;;;;;;8.15;6.40;;;;;;;;;;5054654;28;20405;-92
2023/06/08 07:48:27;;;;;;;6.97;6.28;;;;;;;;;;5054782;28;20382;-90
2023/06/08 07:50:53;;;;;;;6.67;5.80;;;;;;;;;;5054187;28;20373;-87
2023/06/08 07:53:21;;;;;;;5.43;4.93;;;;;;;;;;5053921;28;20385;-89
2023/06/08 07:55:47;;;;;;;6.55;5.82;;;;;;;;;;5035839;28;20480;-86
2023/06/08 07:58:13;;;;;;;5.70;5.20;;;;;;;;;;5054217;28;20413;-86
2023/06/08 08:00:40;;;;;;;6.93;5.25;;;;;;;;;;5049065;28;20385;-86
2023/06/08 08:03:06;;;;;;;5.68;5.10;;;;;;;;;;5053941;28;20390;-90
2023/06/08 08:05:32;;;;;;;5.32;4.57;;;;;;;;;;5053955;28;20444;-88
2023/06/08 08:07:58;;;;;;;4.30;4.00;;;;;;;;;;5054573;28;20369;-87
2023/06/08 08:10:24;;;;;;;4.72;4.22;;;;;;;;;;5054033;28;20488;-87
2023/06/08 08:12:50;;;;;;;4.20;3.80;;;;;;;;;;5053523;28;20488;-87
2023/06/08 08:15:16;;;;;;;4.53;4.13;;;;;;;;;;5053694;28;20429;-86
2023/06/08 08:17:42;;;;;;;4.50;4.10;;;;;;;;;;5053422;28;20381;-88
2023/06/08 08:20:09;;;;;;;3.88;3.58;;;;;;;;;;5054725;28;20382;-89
2023/06/08 08:22:36;;;;;;;4.40;4.00;;;;;;;;;;5055768;28;20874;-89
2023/06/08 08:25:02;;;;;;;3.90;3.60;;;;;;;;;;5054810;28;20971;-88
2023/06/08 08:27:28;;;;;;;3.60;3.35;;;;;;;;;;5054117;28;20906;-89
2023/06/08 08:29:54;;;;;;;4.40;4.00;;;;;;;;;;5055415;28;20405;-89
2023/06/08 08:32:20;;;;;;;3.75;3.45;;;;;;;;;;5057122;28;20392;-90
2023/06/08 08:34:46;;;;;;;4.35;4.00;;;;;;;;;;5057178;28;20384;-91
2023/06/08 08:37:13;;;;;;;4.13;3.83;;;;;;;;;;5055056;28;20369;-90
2023/06/08 08:39:39;;;;;;;4.10;3.80;;;;;;;;;;5055099;28;20409;-93
2023/06/08 08:42:07;;;;;;;4.00;3.70;;;;;;;;;;5055158;28;20442;-91
2023/06/08 08:44:33;;;;;;;4.40;4.10;;;;;;;;;;5055806;28;20731;-91
2023/06/08 08:47:02;;;;;;;4.43;4.13;;;;;;;;;;5055994;28;20409;-90
2023/06/08 08:49:32;;;;;;;4.30;3.90;;;;;;;;;;5056065;28;20381;-91
2023/06/08 08:52:01;;;;;;;3.85;3.55;;;;;;;;;;5053808;28;20764;-90
2023/06/08 08:54:33;;;;;;;4.83;3.70;;;;;;;;;;5053913;28;20435;-91
2023/06/08 08:56:59;;;;;;;4.00;3.70;;;;;;;;;;5053252;28;20389;-88
2023/06/08 08:59:28;;;;;;;3.80;3.50;;;;;;;;;;5053135;28;20377;-90
2023/06/08 09:01:54;;;;;;;3.60;3.30;;;;;;;;;;5053104;28;20747;-89
2023/06/08 09:04:20;;;;;;;3.45;3.20;;;;;;;;;;5046556;28;20385;-90
2023/06/08 09:06:50;;;;;;;3.70;3.40;;;;;;;;;;5036371;28;20474;-89
2023/06/08 09:09:16;;;;;;;3.85;3.45;;;;;;;;;;5054139;28;21184;-91
2023/06/08 09:12:01;;;;;;;3.60;3.28;;;;;;;;;;5053416;28;20483;-87
2023/06/08 09:14:28;;;;;;;3.67;3.00;;;;;;;;;;5053517;28;20385;-92
2023/06/08 09:16:55;;;;;;;3.92;3.63;;;;;;;;;;5052921;28;20385;-88
2023/06/08 09:19:22;;;;;;;3.20;3.00;;;;;;;;;;5053184;28;20750;-89
2023/06/08 09:21:48;;;;;;;3.50;3.20;;;;;;;;;;5053163;28;20468;-88
2023/06/08 09:24:16;;;;;;;3.30;3.00;;;;;;;;;;5054598;28;20385;-87
2023/06/08 09:26:46;;;;;;;3.38;3.10;;;;;;;;;;5053396;28;20409;-87
2023/06/08 09:29:13;;;;;;;3.38;3.08;;;;;;;;;;5034220;28;20747;-89
2023/06/08 09:31:49;;;;;;;3.28;3.00;;;;;;;;;;5053939;28;20386;-91
2023/06/08 09:34:16;;;;;;;3.25;3.00;;;;;;;;;;5039848;28;20385;-90
2023/06/08 09:36:43;;;;;;;3.30;3.00;;;;;;;;;;5054015;28;20885;-89
2023/06/08 09:39:09;;;;;;;3.13;2.90;;;;;;;;;;5054488;28;20409;-90
2023/06/08 09:41:38;;;;;;;3.05;2.85;;;;;;;;;;5044222;28;20935;-90
2023/06/08 09:44:25;;;;;;;3.20;3.00;;;;;;;;;;5051609;28;20514;-88
2023/06/08 09:46:51;;;;;;;3.05;2.75;;;;;;;;;;5052611;28;20437;-90
2023/06/08 09:49:18;;;;;;;3.38;2.90;;;;;;;;;;5053087;28;20920;-93
2023/06/08 09:51:53;;;;;;;2.70;2.50;;;;;;;;;;5045961;28;20383;-87
2023/06/08 09:54:20;;;;;;;2.90;2.70;;;;;;;;;;5052541;28;20385;-92
2023/06/08 09:56:57;;;;;;;3.10;2.90;;;;;;;;;;5052936;28;20946;-91
2023/06/08 09:59:28;;;;;;;3.20;2.80;;;;;;;;;;5052593;28;20863;-92
2023/06/08 10:01:55;;;;;;;3.03;2.78;;;;;;;;;;5053438;28;20381;-91
2023/06/08 10:04:31;;;;;;;3.20;3.00;;;;;;;;;;5052829;28;20388;-89
2023/06/08 10:07:01;;;;;;;3.25;2.97;;;;;;;;;;5052757;28;20452;-90
2023/06/08 10:09:28;;;;;;;3.20;3.00;;;;;;;;;;5051888;28;20959;-88
2023/06/08 10:11:56;;;;;;;2.88;2.67;;;;;;;;;;5052226;28;20492;-88
2023/06/08 10:14:23;;;;;;;3.20;2.92;;;;;;;;;;5055193;28;20393;-91
2023/06/08 10:16:49;;;;;;;2.90;2.70;;;;;;;;;;5054699;28;20403;-91
2023/06/08 10:19:17;;;;;;;2.80;2.60;;;;;;;;;;5057469;28;20381;-91
2023/06/08 10:21:43;;;;;;;2.97;2.78;;;;;;;;;;5054570;28;20437;-91
2023/06/08 10:24:10;;;;;;;2.92;2.72;;;;;;;;;;5056183;28;20477;-92
2023/06/08 10:26:36;;;;;;;3.58;3.28;;;;;;;;;;5053119;28;20412;-93
2023/06/08 10:29:05;;;;;;;3.30;3.00;;;;;;;;;;5053908;28;20377;-88
2023/06/08 10:31:31;;;;;;;3.58;3.15;;;;;;;;;;5052476;28;20405;-86
2023/06/08 10:33:58;;;;;;;3.63;3.30;;;;;;;;;;5052001;28;20716;-88
2023/06/08 10:36:34;;;;;;;3.13;2.92;;;;;;;;;;5052650;28;20389;-89
2023/06/08 10:39:02;;;;;;;3.92;3.17;;;;;;;;;;5052588;28;20405;-90
2023/06/08 10:41:38;;;;;;;3.85;3.15;;;;;;;;;;5034119;28;20825;-89
2023/06/08 10:44:04;;;;;;;3.50;3.20;;;;;;;;;;5052651;28;20731;-90
2023/06/08 10:46:43;;;;;;;4.23;3.13;;;;;;;;;;5051559;28;20835;-88
2023/06/08 10:49:09;;;;;;;3.40;3.20;;;;;;;;;;5052864;28;20422;-89
2023/06/08 10:51:45;;;;;;;3.75;3.50;;;;;;;;;;5052990;28;20887;-88
2023/06/08 10:54:21;;;;;;;3.38;3.17;;;;;;;;;;5051927;28;20396;-88
2023/06/08 10:56:52;;;;;;;3.60;3.30;;;;;;;;;;5042383;28;20387;-87
2023/06/08 10:59:18;;;;;;;3.35;3.15;;;;;;;;;;5049150;28;20411;-88
2023/06/08 11:01:47;;;;;;;3.53;3.28;;;;;;;;;;5051608;28;21045;-88
2023/06/08 11:04:14;;;;;;;3.45;3.15;;;;;;;;;;5051684;28;20886;-89
2023/06/08 11:06:41;;;;;;;3.78;3.47;;;;;;;;;;5050697;28;20409;-88
2023/06/08 11:09:07;;;;;;;3.50;3.20;;;;;;;;;;5051618;28;20382;-90
2023/06/08 11:11:33;;;;;;;3.63;3.33;;;;;;;;;;5049999;28;20401;-90
2023/06/08 11:14:02;;;;;;;3.78;3.38;;;;;;;;;;5051793;28;20464;-90
2023/06/08 11:16:28;;;;;;;3.72;3.45;;;;;;;;;;5051274;28;20420;-90
2023/06/08 11:18:54;;;;;;;3.90;3.60;;;;;;;;;;5052408;28;20386;-90
2023/06/08 11:21:24;;;;;;;5.18;3.70;;;;;;;;;;5051607;28;20731;-90
2023/06/08 11:23:50;;;;;;;3.85;3.55;;;;;;;;;;5048670;28;20881;-90
2023/06/08 11:26:16;;;;;;;3.88;3.53;;;;;;;;;;5029089;28;20405;-89
2023/06/08 11:28:44;;;;;;;3.38;3.17;;;;;;;;;;5050978;28;20806;-89
2023/06/08 11:31:10;;;;;;;3.70;3.42;;;;;;;;;;5050809;28;20373;-90
2023/06/08 11:33:36;;;;;;;4.35;3.53;;;;;;;;;;5049887;28;20443;-91
2023/06/08 11:36:03;;;;;;;3.55;3.25;;;;;;;;;;5046255;28;20392;-89
2023/06/08 11:38:29;;;;;;;3.60;3.30;;;;;;;;;;5051412;28;20411;-91
2023/06/08 11:40:58;;;;;;;3.78;3.47;;;;;;;;;;5051705;28;20914;-89
2023/06/08 11:43:24;;;;;;;3.97;3.40;;;;;;;;;;5051718;28;20382;-89
2023/06/08 11:45:51;;;;;;;3.53;3.33;;;;;;;;;;5051375;28;20492;-89
2023/06/08 11:48:17;;;;;;;3.53;3.33;;;;;;;;;;5051192;28;20389;-90
2023/06/08 11:50:49;;;;;;;4.68;3.60;;;;;;;;;;5051404;28;20370;-91
2023/06/08 11:53:22;;;;;;;3.80;3.53;;;;;;;;;;5054578;28;20407;-91
2023/06/08 11:55:48;;;;;;;3.60;3.40;;;;;;;;;;5054688;28;20378;-90
2023/06/08 11:58:14;;;;;;;3.70;3.40;;;;;;;;;;5055618;28;20409;-91
2023/06/08 12:00:40;;;;;;;3.67;3.38;;;;;;;;;;5055926;28;20914;-90
2023/06/08 12:03:09;;;;;;;3.42;3.17;;;;;;;;;;5055720;28;20390;-89
2023/06/08 12:05:35;;;;;;;3.50;3.00;;;;;;;;;;5054941;28;20437;-89
2023/06/08 12:08:14;;;;;;;5.40;5.00;;;;;;;;;;5055704;28;20737;-91
2023/06/08 12:10:42;;;;;;;5.65;3.50;;;;;;;;;;5050971;28;20387;-90
2023/06/08 12:13:08;;;;;;;3.25;3.05;;;;;;;;;;5055598;28;20381;-89
2023/06/08 12:15:38;;;;;;;3.45;3.15;;;;;;;;;;5055414;28;20472;-92
2023/06/08 12:18:04;;;;;;;3.53;3.33;;;;;;;;;;5055053;28;20427;-89
2023/06/08 12:20:31;;;;;;;3.90;3.50;;;;;;;;;;5055625;28;20385;-91
2023/06/08 12:22:57;;;;;;;3.55;3.25;;;;;;;;;;5055126;28;20407;-90
2023/06/08 12:25:23;;;;;;;3.50;3.15;;;;;;;;;;5055252;28;20401;-90
2023/06/08 12:27:49;;;;;;;3.45;3.15;;;;;;;;;;5055178;28;20731;-90
2023/06/08 12:30:15;;;;;;;3.28;3.08;;;;;;;;;;5054801;28;20460;-90
2023/06/08 12:32:42;;;;;;;3.10;2.90;;;;;;;;;;5054975;28;20969;-89
2023/06/08 12:35:08;;;;;;;3.38;3.17;;;;;;;;;;5053424;28;20795;-89
2023/06/08 12:37:35;;;;;;;3.28;3.08;;;;;;;;;;5054887;28;20862;-91
2023/06/08 12:40:01;;;;;;;3.30;3.10;;;;;;;;;;5054650;28;20377;-90
2023/06/08 12:42:27;;;;;;;3.55;3.28;;;;;;;;;;5054551;28;20385;-89
2023/06/08 12:44:53;;;;;;;3.55;3.25;;;;;;;;;;5053254;28;20485;-90
2023/06/08 12:47:19;;;;;;;3.37;3.07;;;;;;;;;;5050471;28;20393;-89
2023/06/08 12:49:46;;;;;;;3.40;3.00;;;;;;;;;;5045371;28;20409;-92
2023/06/08 12:52:12;;;;;;;3.60;3.30;;;;;;;;;;5049464;28;20885;-91
2023/06/08 12:54:38;;;;;;;3.50;3.20;;;;;;;;;;5053281;28;20382;-90
2023/06/08 12:57:04;;;;;;;3.70;3.40;;;;;;;;;;5052814;28;20443;-94
2023/06/08 12:59:30;;;;;;;3.90;3.10;;;;;;;;;;5051940;28;20382;-92
2023/06/08 13:01:56;;;;;;;3.60;3.30;;;;;;;;;;5055756;28;21548;-89
2023/06/08 13:04:22;;;;;;;3.40;3.20;;;;;;;;;;5031591;28;20515;-91
2023/06/08 13:06:49;;;;;;;3.55;3.25;;;;;;;;;;5049101;28;20478;-91
2023/06/08 13:09:15;;;;;;;3.75;3.45;;;;;;;;;;5056093;28;20389;-91
2023/06/08 13:11:41;;;;;;;4.60;3.30;;;;;;;;;;5042499;28;20477;-90
2023/06/08 13:14:07;;;;;;;3.92;3.60;;;;;;;;;;5029976;28;20460;-91
2023/06/08 13:16:33;;;;;;;4.55;3.53;;;;;;;;;;5040185;28;20375;-91
2023/06/08 13:18:59;;;;;;;4.28;3.97;;;;;;;;;;5047647;28;20383;-92
2023/06/08 13:21:31;;;;;;;4.82;3.38;;;;;;;;;;5054068;28;20412;-90
2023/06/08 13:23:57;;;;;;;3.80;3.50;;;;;;;;;;5036482;28;20385;-92
2023/06/08 13:26:24;;;;;;;3.70;3.40;;;;;;;;;;5053878;28;20417;-92
2023/06/08 13:28:51;;;;;;;3.57;3.27;;;;;;;;;;5036677;28;20389;-90
2023/06/08 13:31:17;;;;;;;3.65;3.35;;;;;;;;;;5054310;28;20465;-89
2023/06/08 13:33:43;;;;;;;3.47;3.22;;;;;;;;;;5053687;28;20409;-91
2023/06/08 13:36:09;;;;;;;3.55;3.25;;;;;;;;;;5124719;23;20484;-84
2023/06/08 13:38:36;;;;;;;3.80;3.50;;;;;;;;;;5072077;28;20396;-84
2023/06/08 13:41:02;;;;;;;5.00;3.50;;;;;;;;;;5057275;28;20861;-84
2023/06/08 13:43:28;;;;;;;3.45;3.25;;;;;;;;;;5071769;28;20478;-84
2023/06/08 13:45:57;;;;;;;3.88;3.50;;;;;;;;;;5071455;28;20399;-86
2023/06/08 13:48:29;;;;;;;3.70;3.40;;;;;;;;;;5054320;28;20433;-85
2023/06/08 13:50:55;;;;;;;3.83;3.53;;;;;;;;;;5071790;28;20386;-84
2023/06/08 13:53:21;;;;;;;3.80;3.50;;;;;;;;;;5071833;28;20380;-85
2023/06/08 13:55:48;;;;;;;3.80;3.50;;;;;;;;;;5071439;28;20433;-84
2023/06/08 13:58:14;;;;;;;4.30;3.50;;;;;;;;;;5071814;28;20376;-83
2023/06/08 14:00:40;;;;;;;3.53;3.22;;;;;;;;;;5071283;28;20384;-80
2023/06/08 14:03:06;;;;;;;3.72;3.42;;;;;;;;;;5067393;28;20815;-83
2023/06/08 14:05:32;;;;;;;4.03;3.55;;;;;;;;;;5070429;28;20484;-84
2023/06/08 14:07:58;;;;;;;3.50;3.30;;;;;;;;;;5070670;28;20430;-86
2023/06/08 14:10:25;;;;;;;5.15;3.40;;;;;;;;;;5071390;28;20429;-84
2023/06/08 14:12:52;;;;;;;4.03;3.70;;;;;;;;;;5069999;28;20422;-85
2023/06/08 14:15:18;;;;;;;3.75;3.50;;;;;;;;;;5051645;28;20394;-84
2023/06/08 14:17:45;;;;;;;4.07;3.60;;;;;;;;;;5070243;28;20432;-85
2023/06/08 14:20:11;;;;;;;3.70;3.40;;;;;;;;;;5071349;28;20384;-84
2023/06/08 14:22:38;;;;;;;3.90;3.60;;;;;;;;;;5071324;28;20388;-85
2023/06/08 14:25:04;;;;;;;3.72;3.50;;;;;;;;;;5071018;28;20887;-84
2023/06/08 14:27:30;;;;;;;3.60;3.30;;;;;;;;;;5071265;28;20378;-84
2023/06/08 14:29:56;;;;;;;4.13;3.73;;;;;;;;;;5071320;28;20387;-84
2023/06/08 14:32:22;;;;;;;4.00;3.70;;;;;;;;;;5071127;28;20387;-85
2023/06/08 14:34:48;;;;;;;3.80;3.43;;;;;;;;;;5070652;28;20899;-85
2023/06/08 14:37:14;;;;;;;3.92;3.63;;;;;;;;;;5071073;28;20380;-85
2023/06/08 14:39:40;;;;;;;4.13;3.60;;;;;;;;;;5070873;28;20411;-85
2023/06/08 14:42:06;;;;;;;4.03;3.72;;;;;;;;;;5071095;28;20741;-85
2023/06/08 14:44:32;;;;;;;3.80;3.50;;;;;;;;;;5070872;28;20807;-86